createdAt,value
2018-01-18T00:01:35.092Z,8.77
2018-01-18T00:04:04.221Z,7.90
2018-01-18T00:06:32.537Z,8.13
2018-01-18T00:09:00.914Z,6.87
2018-01-18T00:11:29.170Z,7.17
2018-01-18T00:13:57.234Z,7.57
2018-01-18T00:16:25.198Z,7.77
2018-01-18T00:18:53.389Z,7.50
2018-01-18T00:21:21.432Z,7.90
2018-01-18T00:23:49.529Z,7.80
2018-01-18T00:26:17.484Z,7.10
2018-01-18T00:28:47.702Z,6.70
2018-01-18T00:31:16.010Z,6.77
2018-01-18T00:33:43.788Z,7.17
2018-01-18T00:36:15.896Z,6.27
2018-01-18T00:38:44.086Z,6.70
2018-01-18T00:41:12.292Z,6.13
2018-01-18T00:43:40.982Z,5.80
2018-01-18T00:46:08.809Z,6.03
2018-01-18T00:48:36.976Z,5.90
2018-01-18T00:51:08.941Z,5.93
2018-01-18T00:53:37.108Z,5.27
2018-01-18T00:56:05.076Z,6.13
2018-01-18T00:58:33.401Z,6.27
2018-01-18T01:01:03.624Z,5.57
2018-01-18T01:03:31.517Z,5.73
2018-01-18T01:05:59.764Z,5.77
2018-01-18T01:08:27.772Z,5.50
2018-01-18T01:10:58.050Z,5.37
2018-01-18T01:13:26.005Z,5.77
2018-01-18T01:15:54.044Z,5.23
2018-01-18T01:18:22.010Z,5.00
2018-01-18T01:20:50.203Z,4.83
2018-01-18T01:23:18.412Z,5.00
2018-01-18T01:25:46.230Z,4.87
2018-01-18T01:28:14.851Z,4.77
2018-01-18T01:30:45.160Z,4.40
2018-01-18T01:33:13.156Z,4.83
2018-01-18T01:35:45.248Z,5.30
2018-01-18T01:38:13.407Z,4.53
2018-01-18T01:40:43.674Z,4.50
2018-01-18T01:43:13.722Z,4.90
2018-01-18T01:45:41.553Z,4.20
2018-01-18T01:48:09.757Z,4.63
2018-01-18T01:50:39.779Z,4.30
2018-01-18T01:53:08.163Z,4.33
2018-01-18T01:55:38.389Z,4.50
2018-01-18T01:58:06.280Z,4.23
2018-01-18T02:00:34.372Z,4.43
2018-01-18T02:03:02.595Z,4.27
2018-01-18T02:05:34.960Z,3.70
2018-01-18T02:08:02.919Z,4.00
2018-01-18T02:10:33.265Z,4.30
2018-01-18T02:13:01.535Z,3.80
2018-01-18T02:15:29.491Z,4.20
2018-01-18T02:17:57.728Z,4.00
2018-01-18T02:20:25.696Z,3.97
2018-01-18T02:22:53.871Z,3.60
2018-01-18T02:25:21.802Z,3.90
2018-01-18T02:27:54.058Z,4.17
2018-01-18T02:30:21.883Z,4.43
2018-01-18T02:32:50.075Z,3.83
2018-01-18T02:35:18.012Z,3.87
2018-01-18T02:37:48.179Z,4.00
2018-01-18T02:40:16.194Z,4.20
2018-01-18T02:42:46.361Z,4.00
2018-01-18T02:45:16.387Z,4.30
2018-01-18T02:47:44.760Z,4.80
2018-01-18T02:50:12.739Z,4.03
2018-01-18T02:52:40.604Z,4.60
2018-01-18T02:55:08.537Z,4.73
2018-01-18T02:57:36.431Z,3.90
2018-01-18T03:00:04.808Z,4.20
2018-01-18T03:02:32.635Z,4.83
2018-01-18T03:05:00.858Z,4.30
2018-01-18T03:07:28.816Z,4.13
2018-01-18T03:09:57.054Z,4.03
2018-01-18T03:12:25.054Z,4.43
2018-01-18T03:14:53.070Z,3.53
2018-01-18T03:17:25.450Z,3.60
2018-01-18T03:19:53.540Z,3.77
2018-01-18T03:22:21.748Z,4.13
2018-01-18T03:24:49.816Z,3.80
2018-01-18T03:27:17.637Z,3.87
2018-01-18T03:29:47.302Z,4.20
2018-01-18T03:32:19.443Z,3.67
2018-01-18T03:34:47.384Z,3.77
2018-01-18T03:37:15.447Z,3.83
2018-01-18T03:39:43.650Z,4.00
2018-01-18T03:42:11.605Z,3.27
2018-01-18T03:44:39.796Z,3.67
2018-01-18T03:47:10.012Z,3.73
2018-01-18T03:49:37.977Z,3.70
2018-01-18T03:52:06.166Z,3.87
2018-01-18T03:54:36.657Z,3.60
2018-01-18T03:57:04.585Z,3.90
2018-01-18T03:59:36.676Z,3.80
2018-01-18T04:02:05.011Z,3.73
2018-01-18T04:04:32.944Z,3.10
2018-01-18T04:07:00.910Z,3.80
2018-01-18T04:09:30.823Z,3.57
2018-01-18T04:11:59.016Z,3.40
2018-01-18T04:14:26.957Z,3.50
2018-01-18T04:16:59.285Z,3.87
2018-01-18T04:19:27.112Z,3.23
2018-01-18T04:21:55.116Z,3.43
2018-01-18T04:24:27.241Z,3.30
2018-01-18T04:26:55.432Z,3.30
2018-01-18T04:29:23.131Z,3.63
2018-01-18T04:31:53.243Z,3.03
2018-01-18T04:34:21.916Z,2.97
2018-01-18T04:36:50.143Z,3.80
2018-01-18T04:39:18.108Z,3.10
2018-01-18T04:41:46.602Z,3.10
2018-01-18T04:44:14.812Z,2.93
2018-01-18T04:46:42.882Z,3.73
2018-01-18T04:49:11.123Z,3.30
2018-01-18T04:51:39.341Z,3.13
2018-01-18T04:54:07.103Z,3.43
2018-01-18T04:56:35.066Z,3.47
2018-01-18T04:59:02.832Z,3.13
2018-01-18T05:01:31.855Z,3.30
2018-01-18T05:04:02.147Z,4.67
2018-01-18T05:06:30.613Z,3.10
2018-01-18T05:09:00.646Z,3.13
2018-01-18T05:11:28.559Z,3.53
2018-01-18T05:13:56.885Z,3.40
2018-01-18T05:16:27.460Z,3.03
2018-01-18T05:18:55.682Z,2.90
2018-01-18T05:21:25.716Z,3.97
2018-01-18T05:23:53.350Z,2.80
2018-01-18T05:26:21.312Z,3.23
2018-01-18T05:28:49.467Z,3.50
2018-01-18T05:31:17.468Z,3.30
2018-01-18T05:33:47.472Z,4.00
2018-01-18T05:36:19.541Z,4.50
2018-01-18T05:38:47.469Z,4.07
2018-01-18T05:41:15.570Z,4.23
2018-01-18T05:43:45.427Z,4.32
2018-01-18T05:46:14.274Z,3.80
2018-01-18T05:48:42.785Z,3.83
2018-01-18T05:51:10.550Z,4.18
2018-01-18T05:53:38.331Z,4.60
2018-01-18T05:56:06.079Z,4.68
2018-01-18T05:58:34.141Z,4.15
2018-01-18T06:01:02.092Z,4.55
2018-01-18T06:03:29.784Z,4.60
2018-01-18T06:05:57.999Z,4.60
2018-01-18T06:08:25.821Z,4.60
2018-01-18T06:10:53.779Z,4.63
2018-01-18T06:13:21.648Z,4.70
2018-01-18T06:15:49.461Z,4.93
2018-01-18T06:18:19.702Z,4.60
2018-01-18T06:20:47.893Z,4.57
2018-01-18T06:23:15.837Z,4.82
2018-01-18T06:25:43.843Z,4.07
2018-01-18T06:28:14.369Z,4.30
2018-01-18T06:30:42.157Z,4.20
2018-01-18T06:33:10.216Z,4.93
2018-01-18T06:35:37.981Z,4.82
2018-01-18T06:38:06.660Z,5.03
2018-01-18T06:40:34.429Z,4.47
2018-01-18T06:43:02.355Z,4.40
2018-01-18T06:45:30.321Z,4.95
2018-01-18T06:47:58.365Z,4.67
2018-01-18T06:50:26.455Z,3.93
2018-01-18T06:52:54.694Z,4.87
2018-01-18T06:55:24.693Z,3.67
2018-01-18T06:57:52.760Z,3.90
2018-01-18T07:00:20.714Z,4.40
2018-01-18T07:02:51.663Z,5.20
2018-01-18T07:05:19.749Z,3.93
2018-01-18T07:07:49.971Z,4.00
2018-01-18T07:10:17.769Z,5.27
2018-01-18T07:12:46.166Z,4.97
2018-01-18T07:15:15.111Z,5.93
2018-01-18T07:17:43.382Z,5.35
2018-01-18T07:20:11.612Z,4.73
2018-01-18T07:22:39.915Z,5.33
2018-01-18T07:25:08.304Z,5.70
2018-01-18T07:27:39.012Z,4.63
2018-01-18T07:30:10.892Z,4.00
2018-01-18T07:32:38.839Z,4.57
2018-01-18T07:35:06.732Z,4.60
2018-01-18T07:37:34.532Z,4.10
2018-01-18T07:40:02.591Z,4.70
2018-01-18T07:42:32.878Z,5.47
2018-01-18T07:45:01.156Z,4.97
2018-01-18T07:47:28.927Z,4.80
2018-01-18T07:49:57.312Z,4.75
2018-01-18T07:52:27.234Z,4.57
2018-01-18T07:54:54.982Z,4.20
2018-01-18T07:57:25.225Z,4.57
2018-01-18T07:59:54.200Z,4.40
2018-01-18T08:02:22.152Z,3.80
2018-01-18T08:04:50.217Z,4.67
2018-01-18T08:07:18.585Z,4.50
2018-01-18T08:09:46.888Z,3.50
2018-01-18T08:12:17.008Z,3.90
2018-01-18T08:14:47.231Z,4.10
2018-01-18T08:17:17.759Z,4.30
2018-01-18T08:19:45.658Z,3.97
2018-01-18T08:22:13.599Z,3.97
2018-01-18T08:24:41.355Z,3.53
2018-01-18T08:27:09.470Z,3.77
2018-01-18T08:29:37.532Z,4.03
2018-01-18T08:32:10.484Z,3.67
2018-01-18T08:34:40.708Z,3.80
2018-01-18T08:37:10.629Z,5.12
2018-01-18T08:39:42.729Z,3.93
2018-01-18T08:42:10.949Z,4.43
2018-01-18T08:44:39.012Z,4.07
2018-01-18T08:47:11.189Z,4.25
2018-01-18T08:49:39.883Z,4.00
2018-01-18T08:52:07.648Z,4.73
2018-01-18T08:54:35.420Z,3.57
2018-01-18T08:57:03.187Z,3.53
2018-01-18T08:59:30.944Z,3.90
2018-01-18T09:01:58.725Z,4.03
2018-01-18T09:04:26.775Z,3.90
2018-01-18T09:06:54.947Z,3.83
2018-01-18T09:09:27.098Z,3.92
2018-01-18T09:11:55.158Z,3.60
2018-01-18T09:14:23.053Z,3.30
2018-01-18T09:16:50.825Z,3.00
2018-01-18T09:19:22.630Z,3.00
2018-01-18T09:21:50.818Z,2.67
2018-01-18T09:24:23.433Z,4.28
2018-01-18T09:26:51.277Z,3.90
2018-01-18T09:29:19.197Z,3.78
2018-01-18T09:31:47.432Z,3.90
2018-01-18T09:34:16.322Z,3.95
2018-01-18T09:36:44.299Z,4.10
2018-01-18T09:39:16.356Z,4.12
2018-01-18T09:41:44.624Z,3.85
2018-01-18T09:44:16.497Z,4.33
2018-01-18T09:46:48.553Z,4.13
2018-01-18T09:49:16.565Z,4.75
2018-01-18T09:51:44.689Z,4.93
2018-01-18T09:54:15.009Z,4.03
2018-01-18T09:56:43.235Z,3.33
2018-01-18T09:59:13.844Z,3.50
2018-01-18T10:01:41.597Z,3.90
2018-01-18T10:04:09.482Z,3.70
2018-01-18T10:06:37.599Z,3.43
2018-01-18T10:09:05.790Z,3.10
2018-01-18T10:11:34.013Z,3.40
2018-01-18T10:14:01.683Z,4.10
2018-01-18T10:16:29.411Z,3.57
2018-01-18T10:18:57.526Z,3.97
2018-01-18T10:21:25.627Z,3.73
2018-01-18T10:23:57.683Z,3.60
2018-01-18T10:26:25.923Z,3.90
2018-01-18T10:28:53.737Z,3.13
2018-01-18T10:31:25.818Z,3.75
2018-01-18T10:33:53.589Z,4.10
2018-01-18T10:36:25.647Z,3.17
2018-01-18T10:38:53.446Z,3.62
2018-01-18T10:41:21.268Z,3.37
2018-01-18T10:43:53.854Z,3.30
2018-01-18T10:46:22.597Z,3.50
2018-01-18T10:48:50.595Z,3.00
2018-01-18T10:51:18.974Z,3.20
2018-01-18T10:53:52.888Z,3.17
2018-01-18T10:56:20.841Z,3.92
2018-01-18T10:58:54.671Z,3.57
2018-01-18T11:01:22.930Z,3.30
2018-01-18T11:03:51.141Z,3.27
2018-01-18T11:06:19.155Z,3.92
2018-01-18T11:08:47.767Z,3.85
2018-01-18T11:11:15.527Z,3.70
2018-01-18T11:13:44.209Z,3.80
2018-01-18T11:16:12.341Z,4.10
2018-01-18T11:18:40.523Z,3.90
2018-01-18T11:21:08.427Z,3.80
2018-01-18T11:23:40.189Z,3.50
2018-01-18T11:26:10.409Z,4.40
2018-01-18T11:28:39.259Z,3.72
2018-01-18T11:31:10.627Z,3.47
2018-01-18T11:33:38.314Z,3.50
2018-01-18T11:36:06.375Z,3.43
2018-01-18T11:38:34.142Z,3.17
2018-01-18T11:41:04.047Z,3.42
2018-01-18T11:43:36.464Z,2.80
2018-01-18T11:46:04.189Z,3.47
2018-01-18T11:48:32.584Z,3.12
2018-01-18T11:51:05.048Z,2.90
2018-01-18T11:53:32.696Z,4.07
2018-01-18T11:56:04.767Z,3.30
2018-01-18T11:58:32.827Z,3.17
2018-01-18T12:01:01.596Z,3.70
2018-01-18T12:03:33.643Z,3.87
2018-01-18T12:06:01.655Z,3.43
2018-01-18T12:08:30.045Z,3.43
2018-01-18T12:10:57.825Z,3.73
2018-01-18T12:13:26.482Z,4.10
2018-01-18T12:15:54.252Z,3.47
2018-01-18T12:18:22.396Z,3.20
2018-01-18T12:20:50.700Z,3.30
2018-01-18T12:23:18.465Z,3.60
2018-01-18T12:25:46.722Z,3.57
2018-01-18T12:28:15.527Z,3.70
2018-01-18T12:30:44.272Z,3.63
2018-01-18T12:33:12.479Z,3.53
2018-01-18T12:35:40.361Z,3.73
2018-01-18T12:38:08.196Z,2.70
2018-01-18T12:40:38.336Z,3.33
2018-01-18T12:43:11.103Z,3.40
2018-01-18T12:45:38.780Z,2.97
2018-01-18T12:48:07.032Z,3.35
2018-01-18T12:50:36.154Z,3.30
2018-01-18T12:53:03.917Z,3.43
2018-01-18T12:55:32.129Z,3.60
2018-01-18T12:58:00.980Z,4.37
2018-01-18T13:00:29.346Z,3.62
2018-01-18T13:02:57.727Z,2.90
2018-01-18T13:05:26.290Z,3.13
2018-01-18T13:07:54.492Z,2.77
2018-01-18T13:10:24.104Z,3.20
2018-01-18T13:12:52.173Z,2.40
2018-01-18T13:15:19.938Z,3.28
2018-01-18T13:17:48.195Z,3.20
2018-01-18T13:20:18.218Z,3.03
2018-01-18T13:22:46.015Z,2.80
2018-01-18T13:25:14.716Z,2.40
2018-01-18T13:27:46.434Z,3.25
2018-01-18T13:30:16.336Z,3.10
2018-01-18T13:32:44.161Z,3.17
2018-01-18T13:35:13.106Z,2.90
2018-01-18T13:37:41.181Z,3.00
2018-01-18T13:40:09.932Z,3.00
2018-01-18T13:42:41.345Z,3.35
2018-01-18T13:45:09.371Z,3.13
2018-01-18T13:47:37.905Z,2.70
2018-01-18T13:50:10.123Z,3.33
2018-01-18T13:52:41.036Z,3.20
2018-01-18T13:55:11.277Z,3.47
2018-01-18T13:57:41.104Z,3.20
2018-01-18T14:00:09.779Z,3.00
2018-01-18T14:02:37.548Z,2.57
2018-01-18T14:05:08.465Z,2.80
2018-01-18T14:07:36.143Z,2.90
2018-01-18T14:10:04.834Z,3.10
2018-01-18T14:12:33.773Z,3.10
2018-01-18T14:15:03.465Z,2.93
2018-01-18T14:17:32.294Z,3.67
2018-01-18T14:20:00.208Z,3.23
2018-01-18T14:22:28.248Z,2.70
2018-01-18T14:24:56.635Z,3.22
2018-01-18T14:27:24.503Z,3.33
2018-01-18T14:29:52.779Z,3.37
2018-01-18T14:32:27.504Z,2.97
2018-01-18T14:34:55.409Z,3.60
2018-01-18T14:37:23.619Z,3.57
2018-01-18T14:39:52.123Z,2.63
2018-01-18T14:42:19.901Z,3.60
2018-01-18T14:44:47.554Z,3.30
2018-01-18T14:47:15.215Z,2.93
2018-01-18T14:49:42.871Z,3.63
2018-01-18T14:52:13.488Z,3.43
2018-01-18T14:54:41.208Z,3.93
2018-01-18T14:57:08.863Z,3.10
2018-01-18T14:59:40.914Z,3.50
2018-01-18T15:02:09.189Z,3.60
2018-01-18T15:04:36.956Z,3.70
2018-01-18T15:07:04.721Z,3.17
2018-01-18T15:09:32.405Z,3.37
2018-01-18T15:12:00.483Z,2.97
2018-01-18T15:14:29.112Z,3.17
2018-01-18T15:16:58.404Z,3.67
2018-01-18T15:19:26.554Z,2.77
2018-01-18T15:21:55.320Z,3.70
2018-01-18T15:24:24.482Z,3.27
2018-01-18T15:26:53.176Z,3.77
2018-01-18T15:29:22.138Z,3.43
2018-01-18T15:31:50.622Z,3.07
2018-01-18T15:34:18.897Z,3.37
2018-01-18T15:36:47.440Z,3.70
2018-01-18T15:39:15.707Z,3.50
2018-01-18T15:41:47.941Z,3.33
2018-01-18T15:44:20.394Z,3.50
2018-01-18T15:46:48.623Z,3.43
2018-01-18T15:49:16.755Z,3.47
2018-01-18T15:51:45.835Z,4.10
2018-01-18T15:54:13.957Z,3.40
2018-01-18T15:56:43.781Z,4.53
2018-01-18T15:59:15.897Z,3.07
2018-01-18T16:01:44.265Z,3.60
2018-01-18T16:04:14.551Z,3.47
2018-01-18T16:06:42.748Z,3.47
2018-01-18T16:09:10.691Z,3.30
2018-01-18T16:11:39.924Z,3.47
2018-01-18T16:14:08.009Z,3.23
2018-01-18T16:16:35.962Z,3.23
2018-01-18T16:19:03.900Z,3.67
2018-01-18T16:21:31.916Z,3.53
2018-01-18T16:23:59.932Z,3.30
2018-01-18T16:26:31.723Z,2.73
2018-01-18T16:29:00.109Z,3.30
2018-01-18T16:31:28.804Z,3.53
2018-01-18T16:33:57.049Z,3.50
2018-01-18T16:36:25.038Z,3.77
2018-01-18T16:38:53.323Z,3.40
2018-01-18T16:41:21.439Z,3.40
2018-01-18T16:43:49.671Z,4.80
2018-01-18T16:46:17.717Z,3.30
2018-01-18T16:48:48.680Z,3.43
2018-01-18T16:51:16.748Z,3.57
2018-01-18T16:53:49.119Z,3.60
2018-01-18T16:56:17.259Z,3.60
2018-01-18T16:58:45.523Z,3.63
2018-01-18T17:01:13.774Z,3.73
2018-01-18T17:03:42.012Z,4.47
2018-01-18T17:06:10.145Z,3.30
2018-01-18T17:08:38.837Z,3.53
2018-01-18T17:11:07.026Z,3.63
2018-01-18T17:13:37.068Z,4.00
2018-01-18T17:16:06.306Z,4.30
2018-01-18T17:18:35.103Z,3.70
2018-01-18T17:21:03.189Z,4.00
2018-01-18T17:23:31.810Z,3.40
2018-01-18T17:26:02.036Z,3.70
2018-01-18T17:28:30.284Z,4.03
2018-01-18T17:30:58.225Z,3.90
2018-01-18T17:33:26.749Z,4.53
2018-01-18T17:35:54.708Z,4.20
2018-01-18T17:38:23.081Z,4.30
2018-01-18T17:40:53.412Z,4.07
2018-01-18T17:43:21.898Z,4.33
2018-01-18T17:45:49.769Z,5.43
2018-01-18T17:48:22.077Z,4.70
2018-01-18T17:50:50.415Z,4.70
2018-01-18T17:53:18.490Z,4.43
2018-01-18T17:55:46.631Z,4.43
2018-01-18T17:58:15.421Z,4.70
2018-01-18T18:00:43.411Z,4.27
2018-01-18T18:03:14.150Z,4.27
2018-01-18T18:05:42.017Z,4.63
2018-01-18T18:08:10.291Z,4.87
2018-01-18T18:10:38.723Z,4.53
2018-01-18T18:13:07.053Z,4.87
2018-01-18T18:59:11.253Z,4.50
2018-01-18T19:01:40.101Z,4.53
2018-01-18T19:04:08.166Z,4.80
2018-01-18T19:06:36.133Z,5.13
2018-01-18T19:09:04.907Z,5.00
2018-01-18T19:11:33.137Z,4.97
2018-01-18T19:14:00.953Z,4.93
2018-01-18T19:16:32.978Z,5.20
2018-01-18T19:19:01.087Z,5.03
2018-01-18T19:21:30.802Z,5.27
2018-01-18T19:23:58.799Z,5.77
2018-01-18T19:26:27.147Z,5.57
2018-01-18T19:28:56.147Z,6.47
2018-01-18T19:31:24.336Z,5.67
2018-01-18T19:33:54.127Z,6.80
2018-01-18T19:36:22.343Z,6.03
2018-01-18T19:38:52.662Z,6.33
2018-01-18T19:41:21.847Z,5.83
2018-01-18T19:43:50.043Z,6.50
2018-01-18T19:46:17.854Z,5.70
2018-01-18T19:48:50.175Z,6.17
2018-01-18T19:51:18.409Z,5.77
2018-01-18T19:53:49.550Z,6.43
2018-01-18T19:56:18.267Z,5.87
2018-01-18T19:58:49.783Z,5.90
2018-01-18T20:01:17.894Z,6.00
2018-01-18T20:03:46.037Z,6.27
2018-01-18T20:06:16.503Z,5.93
2018-01-18T20:08:45.496Z,5.10
2018-01-18T20:11:16.384Z,5.30
2018-01-18T20:13:46.649Z,5.57
2018-01-18T20:16:14.988Z,5.07
2018-01-18T20:18:43.300Z,4.73
2018-01-18T20:21:14.142Z,5.07
2018-01-18T20:23:41.960Z,5.70
2018-01-18T20:26:11.513Z,5.40
2018-01-18T20:28:40.206Z,5.73
2018-01-18T20:31:11.023Z,5.50
2018-01-18T20:33:39.405Z,5.40
2018-01-18T20:36:07.689Z,5.20
2018-01-18T20:38:36.162Z,5.27
2018-01-18T20:41:04.754Z,4.83
2018-01-18T20:43:32.787Z,5.97
2018-01-18T20:46:01.104Z,5.40
2018-01-18T20:48:33.565Z,6.00
2018-01-18T20:51:01.501Z,5.90
2018-01-18T20:53:34.725Z,6.07
2018-01-18T20:56:02.701Z,6.00
2018-01-18T20:58:30.551Z,6.17
2018-01-18T21:00:58.516Z,6.73
2018-01-18T21:03:28.556Z,6.43
2018-01-18T21:05:56.921Z,6.80
2018-01-18T21:08:26.958Z,6.50
2018-01-18T21:10:55.704Z,6.17
2018-01-18T21:13:23.670Z,6.13
2018-01-18T21:15:55.971Z,6.90
2018-01-18T21:18:26.504Z,6.33
2018-01-18T21:20:55.640Z,6.63
2018-01-18T21:23:25.783Z,6.60
2018-01-18T21:25:54.084Z,6.80
2018-01-18T21:28:22.212Z,6.50
2018-01-18T21:30:50.555Z,7.40
2018-01-18T21:33:18.911Z,6.40
2018-01-18T21:35:47.058Z,7.30
2018-01-18T21:38:15.848Z,6.30
2018-01-18T21:40:43.752Z,6.63
2018-01-18T21:43:11.515Z,6.83
2018-01-18T21:45:40.085Z,6.80
2018-01-18T21:48:09.062Z,7.67
2018-01-18T21:50:37.100Z,6.63
2018-01-18T21:53:05.072Z,6.70
2018-01-18T21:55:36.066Z,6.27
2018-01-18T21:58:03.998Z,6.03
2018-01-18T22:00:32.191Z,6.87
2018-01-18T22:03:00.658Z,7.00
2018-01-18T22:05:28.920Z,6.83
2018-01-18T22:07:56.884Z,6.67
2018-01-18T22:10:25.074Z,6.57
2018-01-18T22:12:53.042Z,7.03
2018-01-18T22:15:21.830Z,7.60
2018-01-18T22:17:51.921Z,7.13
2018-01-18T22:20:20.247Z,6.90
2018-01-18T22:22:48.203Z,6.43
2018-01-18T22:25:20.398Z,6.83
2018-01-18T22:27:50.616Z,6.10
2018-01-18T22:30:18.448Z,6.43
2018-01-18T22:32:48.363Z,7.30
2018-01-18T22:35:16.362Z,6.73
2018-01-18T22:37:46.899Z,6.60
2018-01-18T22:40:17.108Z,6.83
2018-01-18T22:42:44.924Z,6.57
2018-01-18T22:45:13.244Z,6.33
2018-01-18T22:47:45.321Z,6.83
2018-01-18T22:50:13.246Z,7.40
2018-01-18T22:52:41.221Z,6.80
2018-01-18T22:55:09.521Z,7.37
2018-01-18T22:57:37.517Z,6.50
2018-01-18T23:00:07.615Z,6.33
2018-01-18T23:02:35.451Z,6.57
2018-01-18T23:05:03.416Z,6.33
2018-01-18T23:07:31.424Z,6.20
2018-01-18T23:10:00.405Z,6.13
2018-01-18T23:12:29.397Z,5.97
2018-01-18T23:14:57.779Z,6.20
2018-01-18T23:17:25.667Z,5.83
2018-01-18T23:19:53.915Z,6.07
2018-01-18T23:22:21.873Z,5.60
2018-01-18T23:24:49.913Z,6.07
2018-01-18T23:27:17.879Z,5.23
2018-01-18T23:29:45.794Z,5.63
2018-01-18T23:32:15.810Z,6.23
2018-01-18T23:34:44.186Z,6.10
2018-01-18T23:37:12.141Z,6.50
2018-01-18T23:39:40.080Z,5.63
2018-01-18T23:42:08.396Z,6.13
2018-01-18T23:44:37.223Z,5.83
2018-01-18T23:47:07.610Z,6.17
2018-01-18T23:49:35.443Z,6.00
2018-01-18T23:52:03.608Z,6.23
2018-01-18T23:54:31.575Z,5.90
2018-01-18T23:57:01.542Z,6.33
2018-01-18T23:59:33.581Z,6.40
